createdAt,value
2017-09-27T00:00:12.847Z,29.40
2017-09-27T00:02:42.551Z,29.30
2017-09-27T00:05:12.164Z,29.60
2017-09-27T00:07:42.034Z,29.70
2017-09-27T00:10:12.397Z,29.40
2017-09-27T00:12:41.938Z,29.30
2017-09-27T00:15:12.530Z,29.30
2017-09-27T00:17:42.864Z,30.00
2017-09-27T00:20:13.496Z,29.90
2017-09-27T00:22:42.835Z,29.40
2017-09-27T00:25:12.793Z,29.90
2017-09-27T00:27:42.688Z,29.80
2017-09-27T00:30:12.087Z,29.90
2017-09-27T00:32:41.631Z,29.90
2017-09-27T00:35:10.773Z,29.60
2017-09-27T00:37:39.916Z,29.90
2017-09-27T00:40:09.274Z,29.80
2017-09-27T00:45:13.581Z,30.20
2017-09-27T00:47:42.860Z,30.20
2017-09-27T00:50:12.121Z,30.30
2017-09-27T00:52:41.798Z,29.70
2017-09-27T00:55:11.601Z,30.40
2017-09-27T00:57:41.733Z,30.60
2017-09-27T01:00:10.876Z,29.70
2017-09-27T01:02:40.739Z,29.80
2017-09-27T01:05:09.976Z,29.60
2017-09-27T01:07:39.852Z,31.10
2017-09-27T01:10:09.973Z,30.60
2017-09-27T01:12:40.435Z,30.70
2017-09-27T01:15:11.787Z,31.70
2017-09-27T01:17:41.311Z,31.50
2017-09-27T01:20:10.490Z,32.30
2017-09-27T01:22:40.890Z,33.30
2017-09-27T01:25:10.155Z,33.00
2017-09-27T01:27:40.171Z,33.60
2017-09-27T01:30:11.483Z,34.20
2017-09-27T01:32:41.347Z,34.90
2017-09-27T01:35:10.672Z,35.10
2017-09-27T01:37:39.979Z,34.80
2017-09-27T01:40:09.328Z,35.00
2017-09-27T01:42:38.648Z,35.50
2017-09-27T01:45:08.662Z,35.50
2017-09-27T01:47:38.063Z,35.80
2017-09-27T01:50:07.298Z,36.10
2017-09-27T01:52:36.935Z,36.10
2017-09-27T01:55:07.046Z,36.30
2017-09-27T01:57:36.503Z,36.20
2017-09-27T02:00:06.505Z,36.10
2017-09-27T02:02:35.871Z,35.80
2017-09-27T02:05:05.284Z,36.50
2017-09-27T02:07:34.415Z,36.80
2017-09-27T02:10:04.378Z,36.50
2017-09-27T02:12:33.817Z,36.70
2017-09-27T02:15:04.113Z,37.70
2017-09-27T02:17:34.079Z,37.70
2017-09-27T02:20:03.433Z,37.80
2017-09-27T02:22:33.076Z,37.80
2017-09-27T02:25:02.757Z,38.80
2017-09-27T02:27:32.414Z,38.70
2017-09-27T02:30:02.128Z,39.20
2017-09-27T02:32:31.495Z,40.80
2017-09-27T02:35:00.820Z,40.20
2017-09-27T02:37:30.121Z,40.90
2017-09-27T02:39:59.921Z,40.50
2017-09-27T02:42:29.347Z,41.20
2017-09-27T02:44:58.781Z,41.10
2017-09-27T02:47:27.912Z,41.60
2017-09-27T02:49:57.468Z,40.90
2017-09-27T02:52:28.059Z,41.20
2017-09-27T02:54:57.594Z,41.50
2017-09-27T02:57:27.269Z,41.60
2017-09-27T02:59:57.615Z,42.70
2017-09-27T03:02:26.783Z,42.60
2017-09-27T03:04:56.521Z,42.40
2017-09-27T03:07:25.853Z,44.00
2017-09-27T03:09:55.128Z,44.20
2017-09-27T03:12:24.325Z,43.40
2017-09-27T03:14:54.127Z,43.90
2017-09-27T03:17:23.320Z,44.00
2017-09-27T03:19:53.585Z,44.50
2017-09-27T03:22:22.942Z,44.80
2017-09-27T03:24:51.597Z,44.50
2017-09-27T03:27:21.341Z,44.70
2017-09-27T03:29:50.849Z,44.90
2017-09-27T03:32:20.679Z,45.80
2017-09-27T03:34:49.941Z,46.30
2017-09-27T03:37:20.308Z,46.90
2017-09-27T03:39:49.009Z,46.80
2017-09-27T03:42:18.636Z,47.00
2017-09-27T03:44:48.091Z,47.00
2017-09-27T03:47:17.489Z,47.20
2017-09-27T03:49:46.932Z,47.40
2017-09-27T03:52:16.390Z,47.40
2017-09-27T03:54:45.762Z,47.80
2017-09-27T03:57:15.465Z,47.60
2017-09-27T03:59:45.019Z,47.50
2017-09-27T04:02:14.254Z,47.20
2017-09-27T04:04:43.561Z,47.10
2017-09-27T04:07:13.424Z,47.20
2017-09-27T04:09:43.017Z,48.00
2017-09-27T04:12:13.226Z,47.60
2017-09-27T04:14:42.732Z,47.40
2017-09-27T04:17:12.216Z,47.50
2017-09-27T04:22:35.936Z,48.10
2017-09-27T04:25:06.080Z,48.60
2017-09-27T04:27:36.081Z,48.50
2017-09-27T04:30:05.485Z,48.80
2017-09-27T04:32:36.612Z,48.60
2017-09-27T04:35:07.007Z,50.00
2017-09-27T04:37:36.595Z,49.80
2017-09-27T04:40:06.289Z,49.60
2017-09-27T04:42:35.837Z,49.50
2017-09-27T04:45:05.214Z,49.70
2017-09-27T04:47:34.459Z,49.80
2017-09-27T04:50:03.795Z,49.70
2017-09-27T04:52:33.411Z,50.20
2017-09-27T04:55:02.851Z,49.90
2017-09-27T04:57:32.297Z,50.60
2017-09-27T05:00:02.208Z,50.50
2017-09-27T05:02:32.066Z,50.40
2017-09-27T05:05:01.206Z,50.50
2017-09-27T05:07:30.782Z,50.80
2017-09-27T05:09:59.912Z,50.80
2017-09-27T05:12:30.165Z,51.50
2017-09-27T05:14:59.457Z,51.40
2017-09-27T05:17:28.831Z,51.40
2017-09-27T05:19:58.212Z,51.60
2017-09-27T05:22:27.778Z,52.70
2017-09-27T05:24:57.593Z,52.80
2017-09-27T05:27:26.827Z,52.30
2017-09-27T05:29:56.014Z,52.30
2017-09-27T05:32:25.304Z,52.40
2017-09-27T05:34:54.546Z,52.90
2017-09-27T05:37:23.717Z,53.40
2017-09-27T05:39:52.798Z,53.30
2017-09-27T05:42:21.872Z,53.70
2017-09-27T05:44:51.395Z,54.00
2017-09-27T05:47:22.207Z,56.00
2017-09-27T05:49:51.537Z,55.90
2017-09-27T05:52:20.582Z,55.90
2017-09-27T05:54:50.025Z,56.20
2017-09-27T05:57:19.302Z,58.10
2017-09-27T05:59:48.568Z,59.50
2017-09-27T06:02:17.976Z,60.00
2017-09-27T06:04:47.280Z,60.40
2017-09-27T06:07:16.402Z,60.90
2017-09-27T06:09:45.851Z,61.10
2017-09-27T06:12:15.270Z,60.90
2017-09-27T06:14:44.630Z,60.50
2017-09-27T06:17:14.068Z,60.60
2017-09-27T06:19:43.468Z,61.10
2017-09-27T06:22:12.725Z,61.00
2017-09-27T06:24:41.831Z,61.00
2017-09-27T06:27:11.835Z,61.30
2017-09-27T06:29:41.327Z,61.20
2017-09-27T06:32:10.471Z,61.20
2017-09-27T06:34:39.771Z,61.20
2017-09-27T06:37:09.356Z,62.30
2017-09-27T06:39:38.763Z,62.90
2017-09-27T06:42:07.958Z,62.80
2017-09-27T06:44:37.406Z,63.20
2017-09-27T06:47:06.407Z,63.20
2017-09-27T06:49:35.674Z,63.10
2017-09-27T06:52:04.865Z,63.10
2017-09-27T06:54:34.332Z,63.10
2017-09-27T06:57:04.443Z,63.40
2017-09-27T06:59:34.727Z,64.20
2017-09-27T07:02:04.007Z,64.10
2017-09-27T07:04:33.100Z,64.20
2017-09-27T07:07:02.433Z,64.00
2017-09-27T07:09:31.745Z,64.40
2017-09-27T07:12:00.950Z,64.30
2017-09-27T07:14:30.007Z,64.20
2017-09-27T07:16:59.349Z,64.20
2017-09-27T07:19:28.853Z,64.60
2017-09-27T07:21:58.096Z,64.70
2017-09-27T07:24:27.491Z,65.10
2017-09-27T07:26:57.209Z,66.00
2017-09-27T07:29:27.694Z,66.00
2017-09-27T07:31:57.243Z,65.70
2017-09-27T07:34:26.638Z,65.60
2017-09-27T07:36:56.278Z,65.80
2017-09-27T07:39:25.599Z,66.00
2017-09-27T07:41:54.766Z,67.10
2017-09-27T07:44:24.279Z,67.00
2017-09-27T07:46:53.509Z,67.20
2017-09-27T07:49:22.931Z,68.50
2017-09-27T07:51:52.428Z,69.00
2017-09-27T07:54:22.419Z,69.50
2017-09-27T07:56:51.701Z,69.50
2017-09-27T07:59:20.692Z,69.50
2017-09-27T08:01:49.995Z,69.50
2017-09-27T08:04:19.369Z,69.50
2017-09-27T08:06:48.549Z,69.90
2017-09-27T08:09:18.895Z,70.70
2017-09-27T08:11:48.075Z,70.70
2017-09-27T08:14:17.196Z,70.70
2017-09-27T08:16:46.667Z,70.70
2017-09-27T08:19:17.072Z,70.60
2017-09-27T08:21:46.245Z,70.60
2017-09-27T08:24:15.390Z,70.90
2017-09-27T08:26:44.873Z,70.50
2017-09-27T08:29:14.002Z,69.80
2017-09-27T08:31:43.836Z,70.20
2017-09-27T08:34:13.306Z,70.60
2017-09-27T08:36:42.421Z,71.40
2017-09-27T08:39:11.531Z,71.30
2017-09-27T08:41:40.790Z,71.50
2017-09-27T08:44:10.079Z,71.80
2017-09-27T08:46:39.449Z,72.10
2017-09-27T08:49:08.777Z,72.40
2017-09-27T08:51:38.212Z,72.00
2017-09-27T08:54:08.543Z,72.30
2017-09-27T08:56:37.975Z,72.30
2017-09-27T08:59:08.152Z,72.60
2017-09-27T09:01:38.327Z,72.50
2017-09-27T09:04:07.450Z,72.40
2017-09-27T09:06:36.824Z,72.20
2017-09-27T09:09:06.130Z,72.70
2017-09-27T09:11:35.656Z,73.30
2017-09-27T09:14:05.114Z,72.60
2017-09-27T09:16:34.654Z,72.40
2017-09-27T09:19:04.026Z,73.30
2017-09-27T09:21:33.239Z,73.00
2017-09-27T09:24:02.732Z,73.70
2017-09-27T09:26:31.982Z,73.50
2017-09-27T09:29:01.216Z,73.50
2017-09-27T09:31:30.538Z,73.50
2017-09-27T09:34:00.377Z,73.50
2017-09-27T09:36:29.682Z,73.70
2017-09-27T09:38:58.905Z,74.60
2017-09-27T09:41:28.096Z,76.00
2017-09-27T09:43:57.648Z,76.20
2017-09-27T09:46:27.175Z,75.90
2017-09-27T09:48:56.779Z,76.20
2017-09-27T09:51:26.470Z,76.10
2017-09-27T09:53:55.708Z,76.20
2017-09-27T09:56:24.998Z,76.30
2017-09-27T09:58:54.573Z,75.90
2017-09-27T10:01:23.938Z,75.30
2017-09-27T10:03:53.045Z,74.90
2017-09-27T10:06:23.508Z,74.10
2017-09-27T10:08:52.701Z,74.10
2017-09-27T10:11:22.000Z,74.20
2017-09-27T10:13:51.594Z,74.00
2017-09-27T10:16:21.047Z,74.20
2017-09-27T10:18:50.375Z,74.00
2017-09-27T10:21:19.729Z,74.00
2017-09-27T10:23:49.073Z,73.60
2017-09-27T10:26:18.504Z,73.90
2017-09-27T10:28:47.686Z,73.60
2017-09-27T10:31:17.291Z,74.30
2017-09-27T10:33:47.626Z,74.40
2017-09-27T10:36:17.649Z,74.40
2017-09-27T10:38:46.977Z,73.90
2017-09-27T10:41:16.115Z,74.00
2017-09-27T10:43:45.586Z,74.40
2017-09-27T10:46:14.976Z,74.40
2017-09-27T10:48:44.342Z,74.10
2017-09-27T10:51:13.851Z,73.90
2017-09-27T10:53:42.951Z,74.20
2017-09-27T10:56:12.160Z,73.80
2017-09-27T10:58:42.040Z,73.90
2017-09-27T11:01:11.218Z,73.90
2017-09-27T11:03:40.553Z,74.40
2017-09-27T11:06:09.857Z,75.10
2017-09-27T11:08:39.855Z,75.70
2017-09-27T11:11:09.050Z,75.60
2017-09-27T11:13:38.323Z,76.10
2017-09-27T11:16:07.570Z,76.00
2017-09-27T11:18:37.068Z,75.60
2017-09-27T11:21:06.219Z,75.80
2017-09-27T11:23:35.759Z,75.60
2017-09-27T11:26:04.861Z,76.10
2017-09-27T11:28:34.322Z,76.40
2017-09-27T11:31:03.851Z,76.60
2017-09-27T11:33:33.143Z,77.10
2017-09-27T11:36:02.439Z,77.10
2017-09-27T11:38:32.284Z,76.90
2017-09-27T11:41:01.627Z,76.60
2017-09-27T11:43:30.967Z,76.80
2017-09-27T11:46:00.123Z,76.50
2017-09-27T11:48:29.318Z,76.10
2017-09-27T11:50:58.468Z,76.20
2017-09-27T11:53:27.806Z,76.20
2017-09-27T11:55:57.721Z,75.70
2017-09-27T11:58:27.832Z,75.20
2017-09-27T12:00:57.235Z,75.10
2017-09-27T12:03:27.345Z,75.80
2017-09-27T12:05:56.538Z,75.80
2017-09-27T12:08:25.830Z,76.30
2017-09-27T12:10:55.079Z,76.10
2017-09-27T12:13:24.415Z,76.10
2017-09-27T12:15:53.619Z,76.50
2017-09-27T12:18:22.926Z,76.80
2017-09-27T12:20:52.244Z,77.30
2017-09-27T12:23:21.526Z,76.40
2017-09-27T12:25:50.779Z,77.10
2017-09-27T12:28:20.225Z,76.90
2017-09-27T12:30:49.615Z,77.30
2017-09-27T12:33:19.205Z,77.30
2017-09-27T12:35:48.651Z,76.90
2017-09-27T12:38:17.848Z,77.20
2017-09-27T12:40:48.785Z,77.60
2017-09-27T12:43:18.059Z,77.40
2017-09-27T12:45:47.506Z,79.50
2017-09-27T12:48:16.856Z,79.00
2017-09-27T12:50:46.175Z,79.50
2017-09-27T12:53:15.572Z,79.70
2017-09-27T12:55:45.068Z,79.90
2017-09-27T12:58:14.459Z,80.10
2017-09-27T13:00:44.211Z,80.10
2017-09-27T13:03:13.349Z,80.40
2017-09-27T13:05:42.513Z,80.30
2017-09-27T13:08:11.700Z,80.20
2017-09-27T13:10:40.879Z,79.80
2017-09-27T13:13:10.234Z,79.90
2017-09-27T13:15:39.664Z,81.20
2017-09-27T13:18:09.503Z,80.60
2017-09-27T13:20:39.192Z,80.30
2017-09-27T13:23:09.379Z,80.60
2017-09-27T13:25:40.226Z,80.00
2017-09-27T13:28:09.755Z,80.10
2017-09-27T13:30:40.660Z,79.70
2017-09-27T13:33:10.407Z,79.70
2017-09-27T13:35:39.918Z,79.30
2017-09-27T13:38:10.405Z,79.70
2017-09-27T13:40:39.812Z,79.40
2017-09-27T13:43:09.822Z,79.70
2017-09-27T13:45:39.462Z,80.00
2017-09-27T13:48:08.813Z,79.30
2017-09-27T13:50:38.088Z,79.40
2017-09-27T13:53:07.469Z,79.10
2017-09-27T13:55:36.702Z,79.40
2017-09-27T13:58:06.202Z,79.60
2017-09-27T14:00:35.938Z,78.80
2017-09-27T14:03:05.292Z,79.30
2017-09-27T14:05:34.636Z,79.60
2017-09-27T14:08:05.791Z,80.80
2017-09-27T14:10:35.123Z,81.10
2017-09-27T14:13:05.316Z,81.40
2017-09-27T14:15:34.403Z,81.40
2017-09-27T14:18:03.792Z,81.60
2017-09-27T14:20:33.167Z,80.90
2017-09-27T14:23:02.450Z,80.90
2017-09-27T14:25:31.955Z,80.70
2017-09-27T14:28:01.332Z,80.40
2017-09-27T14:30:31.664Z,80.70
2017-09-27T14:33:00.875Z,80.30
2017-09-27T14:35:30.892Z,80.10
2017-09-27T14:38:00.039Z,80.00
2017-09-27T14:40:29.351Z,80.00
2017-09-27T14:42:58.829Z,80.30
2017-09-27T14:45:29.347Z,79.90
2017-09-27T14:47:58.676Z,80.00
2017-09-27T14:50:27.955Z,80.00
2017-09-27T14:52:57.751Z,80.20
2017-09-27T14:55:27.188Z,80.00
2017-09-27T14:57:56.780Z,79.60
2017-09-27T15:00:26.347Z,79.80
2017-09-27T15:02:56.542Z,78.50
2017-09-27T15:05:25.907Z,78.50
2017-09-27T15:07:54.974Z,78.50
2017-09-27T15:10:24.268Z,76.70
2017-09-27T15:12:53.763Z,74.40
2017-09-27T15:15:22.829Z,73.40
2017-09-27T15:17:52.341Z,71.50
2017-09-27T15:20:21.628Z,72.50
2017-09-27T15:22:50.643Z,69.40
2017-09-27T15:25:20.001Z,68.10
2017-09-27T15:27:49.476Z,66.90
2017-09-27T15:30:19.579Z,64.60
2017-09-27T15:32:48.834Z,64.50
2017-09-27T15:35:18.073Z,63.00
2017-09-27T15:37:47.309Z,61.30
2017-09-27T15:40:16.485Z,59.00
2017-09-27T15:42:45.736Z,60.00
2017-09-27T15:45:15.551Z,58.80
2017-09-27T15:47:45.109Z,58.00
2017-09-27T15:50:15.306Z,56.40
2017-09-27T15:52:44.550Z,56.50
2017-09-27T15:55:14.100Z,51.10
2017-09-27T15:57:43.714Z,51.60
2017-09-27T16:00:13.072Z,50.00
2017-09-27T16:02:42.264Z,46.40
2017-09-27T16:05:11.852Z,41.20
2017-09-27T16:07:40.997Z,34.00
2017-09-27T16:10:10.408Z,32.00
2017-09-27T16:12:39.864Z,27.50
2017-09-27T16:15:09.245Z,25.80
2017-09-27T16:17:39.412Z,24.70
2017-09-27T16:20:08.736Z,24.70
2017-09-27T16:22:37.893Z,24.50
2017-09-27T16:25:07.508Z,24.60
2017-09-27T16:27:36.760Z,23.70
2017-09-27T16:30:06.102Z,24.60
2017-09-27T16:32:35.454Z,25.90
2017-09-27T16:35:04.762Z,26.00
2017-09-27T16:37:33.862Z,26.40
2017-09-27T16:40:03.348Z,26.70
2017-09-27T16:42:32.753Z,28.00
2017-09-27T16:45:02.184Z,28.90
2017-09-27T16:47:31.545Z,28.30
2017-09-27T16:50:02.276Z,30.70
2017-09-27T16:52:31.464Z,30.90
2017-09-27T16:55:01.019Z,31.30
2017-09-27T16:57:30.095Z,30.20
2017-09-27T16:59:59.393Z,31.50
2017-09-27T17:02:29.372Z,30.90
2017-09-27T17:04:58.544Z,31.00
2017-09-27T17:07:27.968Z,31.10
2017-09-27T17:09:58.268Z,33.70
2017-09-27T17:12:28.450Z,32.20
2017-09-27T17:14:57.759Z,32.10
2017-09-27T17:17:26.944Z,32.70
2017-09-27T17:19:56.293Z,31.30
2017-09-27T17:22:26.644Z,33.10
2017-09-27T17:24:56.004Z,33.00
2017-09-27T17:27:25.355Z,32.30
2017-09-27T17:29:54.622Z,32.20
2017-09-27T17:32:24.002Z,31.70
2017-09-27T17:34:53.301Z,31.80
2017-09-27T17:37:22.689Z,32.40
2017-09-27T17:39:51.813Z,32.20
2017-09-27T17:42:20.890Z,31.40
2017-09-27T17:44:50.048Z,30.10
2017-09-27T17:47:19.356Z,31.40
2017-09-27T17:49:48.801Z,29.60
2017-09-27T17:52:19.260Z,30.20
2017-09-27T17:54:49.436Z,29.70
2017-09-27T17:57:18.801Z,29.70
2017-09-27T17:59:47.991Z,28.30
2017-09-27T18:02:17.424Z,28.20
2017-09-27T18:04:48.874Z,28.50
2017-09-27T18:07:23.760Z,28.80
2017-09-27T18:09:59.647Z,27.30
2017-09-27T18:12:34.785Z,27.20
2017-09-27T18:18:30.694Z,26.20
2017-09-27T18:21:01.030Z,27.20
2017-09-27T18:23:30.474Z,27.20
2017-09-27T18:26:00.449Z,26.90
2017-09-27T18:28:30.788Z,25.80
2017-09-27T18:31:00.198Z,25.60
2017-09-27T18:33:29.741Z,27.50
2017-09-27T18:35:59.158Z,26.00
2017-09-27T18:38:28.772Z,25.10
2017-09-27T18:40:57.786Z,26.10
2017-09-27T18:43:28.254Z,25.70
2017-09-27T18:45:57.661Z,25.60
2017-09-27T18:48:26.923Z,25.00
2017-09-27T18:50:56.069Z,25.70
2017-09-27T18:53:26.493Z,24.40
2017-09-27T18:55:55.936Z,24.80
2017-09-27T18:58:25.430Z,25.10
2017-09-27T19:00:54.784Z,24.00
2017-09-27T19:03:23.989Z,23.40
2017-09-27T19:05:53.430Z,22.80
2017-09-27T19:08:22.855Z,22.30
2017-09-27T19:10:52.140Z,22.60
2017-09-27T19:13:21.393Z,22.30
2017-09-27T19:15:50.472Z,22.70
2017-09-27T19:18:19.903Z,22.70
2017-09-27T19:20:49.479Z,21.60
2017-09-27T19:23:18.960Z,21.20
2017-09-27T19:25:48.823Z,21.70
2017-09-27T19:28:18.125Z,21.60
2017-09-27T19:30:47.426Z,20.30
2017-09-27T19:33:16.874Z,20.50
2017-09-27T19:35:45.878Z,21.10
2017-09-27T19:38:16.122Z,18.80
2017-09-27T19:40:45.530Z,18.80
2017-09-27T19:43:14.777Z,19.10
2017-09-27T19:45:44.150Z,18.90
2017-09-27T19:48:13.516Z,19.40
2017-09-27T19:50:43.366Z,18.80
2017-09-27T19:53:12.608Z,18.70
2017-09-27T19:55:42.944Z,18.40
2017-09-27T19:58:13.081Z,17.70
2017-09-27T20:00:42.926Z,17.70
2017-09-27T20:03:12.370Z,18.40
2017-09-27T20:05:41.727Z,17.70
2017-09-27T20:08:11.105Z,18.30
2017-09-27T20:10:40.394Z,18.40
2017-09-27T20:13:10.248Z,18.40
2017-09-27T20:15:39.465Z,18.40
2017-09-27T20:18:08.581Z,17.50
2017-09-27T20:20:38.002Z,17.90
2017-09-27T20:23:07.465Z,17.00
2017-09-27T20:25:36.526Z,16.70
2017-09-27T20:28:05.890Z,17.90
2017-09-27T20:30:35.947Z,16.50
2017-09-27T20:33:05.383Z,16.50
2017-09-27T20:35:34.989Z,16.70
2017-09-27T20:38:04.549Z,17.30
2017-09-27T20:40:34.310Z,17.10
2017-09-27T20:43:03.579Z,17.00
2017-09-27T20:45:33.155Z,17.40
2017-09-27T20:48:03.413Z,17.10
2017-09-27T20:50:32.599Z,17.00
2017-09-27T20:53:02.052Z,17.40
2017-09-27T20:55:31.490Z,16.70
2017-09-27T20:58:02.044Z,17.00
2017-09-27T21:00:31.265Z,17.20
2017-09-27T21:03:00.451Z,16.40
2017-09-27T21:05:29.981Z,16.60
2017-09-27T21:07:59.568Z,17.00
2017-09-27T21:10:28.946Z,16.20
2017-09-27T21:12:58.390Z,16.90
2017-09-27T21:15:27.674Z,16.60
2017-09-27T21:17:56.962Z,17.00
2017-09-27T21:20:26.197Z,16.90
2017-09-27T21:22:55.560Z,16.60
2017-09-27T21:25:25.121Z,16.80
2017-09-27T21:27:54.546Z,16.30
2017-09-27T21:30:24.555Z,16.20
2017-09-27T21:32:54.712Z,15.90
2017-09-27T21:35:24.074Z,15.90
2017-09-27T21:37:53.438Z,15.00
2017-09-27T21:40:22.700Z,15.00
2017-09-27T21:42:52.086Z,15.30
2017-09-27T21:45:22.376Z,15.60
2017-09-27T21:47:51.665Z,15.40
2017-09-27T21:50:20.751Z,15.40
2017-09-27T21:52:50.338Z,15.00
2017-09-27T21:55:19.460Z,15.30
2017-09-27T21:57:49.076Z,15.80
2017-09-27T22:00:19.354Z,15.10
2017-09-27T22:02:48.482Z,15.40
2017-09-27T22:05:17.613Z,14.80
2017-09-27T22:07:46.925Z,14.70
2017-09-27T22:10:17.163Z,14.70
2017-09-27T22:12:46.570Z,14.60
2017-09-27T22:15:16.652Z,14.80
2017-09-27T22:17:46.062Z,14.80
2017-09-27T22:20:15.119Z,15.00
2017-09-27T22:22:44.709Z,14.90
2017-09-27T22:25:13.909Z,15.30
2017-09-27T22:27:43.116Z,14.80
2017-09-27T22:30:12.411Z,14.90
2017-09-27T22:32:41.616Z,14.50
2017-09-27T22:35:11.041Z,15.10
2017-09-27T22:37:40.259Z,15.00
2017-09-27T22:40:09.625Z,14.60
2017-09-27T22:42:38.965Z,14.70
2017-09-27T22:45:08.176Z,14.40
2017-09-27T22:47:37.879Z,14.40
2017-09-27T22:50:07.236Z,13.90
2017-09-27T22:52:36.303Z,14.00
2017-09-27T22:55:05.719Z,14.40
2017-09-27T22:57:35.069Z,14.20
2017-09-27T23:00:04.801Z,14.60
2017-09-27T23:02:34.757Z,14.10
2017-09-27T23:05:04.085Z,14.30
2017-09-27T23:07:33.746Z,14.10
2017-09-27T23:10:03.129Z,13.70
2017-09-27T23:12:33.442Z,13.80
2017-09-27T23:15:02.896Z,13.80
2017-09-27T23:17:32.325Z,14.10
2017-09-27T23:20:01.516Z,14.10
2017-09-27T23:22:37.185Z,13.60
2017-09-27T23:25:06.764Z,13.90
2017-09-27T23:27:37.062Z,13.80
2017-09-27T23:30:06.821Z,13.70
2017-09-27T23:32:36.602Z,13.60
2017-09-27T23:35:06.129Z,13.70
2017-09-27T23:37:35.262Z,14.00
2017-09-27T23:40:07.954Z,14.00
2017-09-27T23:42:38.507Z,14.00
2017-09-27T23:45:07.680Z,13.70
2017-09-27T23:47:37.189Z,13.60
2017-09-27T23:50:06.701Z,13.60
2017-09-27T23:52:37.684Z,13.60
2017-09-27T23:55:07.093Z,13.60
2017-09-27T23:57:36.480Z,13.50
